Time;durP1;ratioP1;P1;durP2;ratioP2;P2;SDS_P1;SDS_P2;PMS_P1;PMS_P2;Temp;Humidity;BMP_temperature;BMP_pressure;BME280_temperature;BME280_humidity;BME280_pressure;Samples;Min_cycle;Max_cycle;Signal;HPM_P1;HPM_P2
2022/12/04 00:00:13;;;;;;;10.63;6.50;;;;;;;3.69;79.50;97964.63;5015860;28;20253;-91
2022/12/04 00:02:40;;;;;;;11.90;6.73;;;;;;;3.73;79.42;97978.94;5032493;28;20025;-91
2022/12/04 00:05:08;;;;;;;12.75;6.57;;;;;;;3.76;80.50;97973.41;5029949;28;20072;-91
2022/12/04 00:07:34;;;;;;;12.77;6.38;;;;;;;3.75;80.51;97964.81;5014754;28;20108;-90
2022/12/04 00:10:01;;;;;;;10.93;6.72;;;;;;;3.65;79.97;97965.91;5012844;28;20034;-92
2022/12/04 00:12:27;;;;;;;13.05;7.30;;;;;;;3.65;79.97;97961.53;4997919;28;20033;-93
2022/12/04 00:14:52;;;;;;;11.70;6.80;;;;;;;3.64;81.05;97954.72;5016464;28;20472;-92
2022/12/04 00:17:18;;;;;;;10.85;6.93;;;;;;;3.68;81.35;97955.25;5021706;28;20045;-92
2022/12/04 00:19:44;;;;;;;12.73;6.90;;;;;;;3.66;80.80;97952.00;5014840;28;20093;-92
2022/12/04 00:22:09;;;;;;;12.30;6.88;;;;;;;3.62;80.45;97946.31;5028431;28;20041;-91
2022/12/04 00:24:35;;;;;;;10.82;6.45;;;;;;;3.69;80.53;97936.09;5034562;28;20033;-92
2022/12/04 00:27:01;;;;;;;12.25;6.80;;;;;;;3.78;80.13;97939.50;5017606;28;20084;-92
2022/12/04 00:29:27;;;;;;;10.35;6.28;;;;;;;3.80;80.36;97927.22;5034469;28;20045;-91
2022/12/04 00:31:52;;;;;;;13.80;6.90;;;;;;;3.83;80.41;97925.09;5013989;28;20402;-92
2022/12/04 00:34:21;;;;;;;12.68;6.72;;;;;;;3.75;80.05;97914.72;4994272;28;20077;-92
2022/12/04 00:36:54;;;;;;;12.20;6.88;;;;;;;3.86;79.68;97914.41;5013934;28;20421;-92
2022/12/04 00:39:20;;;;;;;13.00;6.72;;;;;;;3.85;79.79;97915.38;5032839;28;20037;-92
2022/12/04 00:41:45;;;;;;;13.27;6.68;;;;;;;3.81;79.41;97934.81;5033172;28;20040;-92
2022/12/04 00:44:11;;;;;;;9.80;6.28;;;;;;;3.70;80.28;97927.34;5025884;28;20040;-92
2022/12/04 00:46:36;;;;;;;12.73;6.97;;;;;;;3.69;80.55;97931.72;5033328;28;20374;-92
2022/12/04 00:49:01;;;;;;;13.00;7.47;;;;;;;3.73;80.25;97927.03;5006286;28;20026;-91
2022/12/04 00:51:27;;;;;;;13.23;6.90;;;;;;;3.75;80.25;97920.72;5025643;28;20068;-91
2022/12/04 00:53:53;;;;;;;11.38;7.18;;;;;;;3.73;80.41;97916.66;5020785;28;20033;-92
2022/12/04 00:56:23;;;;;;;11.80;7.47;;;;;;;3.77;80.81;97917.94;5016044;28;20047;-92
2022/12/04 00:59:00;;;;;;;10.73;6.72;;;;;;;3.60;80.41;97911.13;5006988;28;20474;-92
2022/12/04 01:01:27;;;;;;;12.10;6.30;;;;;;;3.63;81.19;97911.63;5028899;28;20033;-92
2022/12/04 01:03:54;;;;;;;9.55;6.15;;;;;;;3.65;80.68;97912.25;5027535;28;20038;-91
2022/12/04 01:06:32;;;;;;;11.02;6.45;;;;;;;3.72;80.96;97921.06;5025399;28;20045;-92
2022/12/04 01:09:00;;;;;;;12.35;6.88;;;;;;;3.69;80.05;97910.16;5015913;28;20072;-92
2022/12/04 01:11:28;;;;;;;10.82;7.15;;;;;;;3.65;81.06;97916.63;5033000;28;20041;-92
2022/12/04 01:13:54;;;;;;;11.63;6.55;;;;;;;3.59;80.99;97915.50;5014983;28;20033;-91
2022/12/04 01:16:26;;;;;;;12.82;7.22;;;;;;;3.49;80.73;97894.91;4997070;28;20034;-92
2022/12/04 01:18:51;;;;;;;12.38;6.57;;;;;;;3.60;80.98;97892.97;5013507;28;20504;-91
2022/12/04 01:21:18;;;;;;;12.30;6.47;;;;;;;3.66;81.40;97894.94;5026212;28;20042;-92
2022/12/04 01:23:44;;;;;;;11.25;6.78;;;;;;;3.78;81.71;97900.59;5025784;28;20113;-91
2022/12/04 01:26:10;;;;;;;11.82;6.43;;;;;;;3.82;80.25;97894.13;5030257;28;20128;-92
2022/12/04 01:28:36;;;;;;;13.57;7.18;;;;;;;3.83;80.03;97899.16;5006263;28;20041;-92
2022/12/04 01:31:21;;;;;;;10.63;6.53;;;;;;;3.76;79.71;97905.97;5030879;28;20037;-91
2022/12/04 01:33:48;;;;;;;11.90;7.20;;;;;;;3.76;79.71;97906.75;5003865;28;20033;-91
2022/12/04 01:36:26;;;;;;;12.63;7.00;;;;;;;3.81;81.07;97897.69;5027648;28;20037;-91
2022/12/04 01:38:52;;;;;;;10.68;6.07;;;;;;;3.83;80.48;97888.78;5032271;28;20495;-92
2022/12/04 01:41:26;;;;;;;11.00;6.88;;;;;;;3.83;79.71;97890.56;5004446;28;20042;-92
2022/12/04 01:44:15;;;;;;;14.60;6.70;;;;;;;3.66;80.58;97897.53;5014343;28;20112;-92
2022/12/04 01:46:49;;;;;;;11.10;5.82;;;;;;;3.63;80.44;97900.44;5004080;28;20025;-92
2022/12/04 01:49:27;;;;;;;11.18;6.55;;;;;;;3.67;81.32;97899.97;5017078;28;20038;-92
2022/12/04 01:52:05;;;;;;;10.13;6.28;;;;;;;3.65;80.95;97906.28;5018118;28;20076;-91
2022/12/04 01:54:39;;;;;;;12.15;6.85;;;;;;;3.75;81.39;97920.72;5002058;28;20073;-92
2022/12/04 01:57:22;;;;;;;11.77;6.15;;;;;;;3.75;81.68;97892.19;4997280;28;20049;-92
2022/12/04 02:00:00;;;;;;;11.27;6.28;;;;;;;3.83;80.76;97906.94;5011787;28;20042;-92
2022/12/04 02:02:35;;;;;;;9.13;6.13;;;;;;;3.92;81.40;97895.59;4994873;28;20611;-92
2022/12/04 02:05:04;;;;;;;11.35;6.30;;;;;;;3.80;81.45;97896.88;5014241;28;20044;-92
2022/12/04 02:07:31;;;;;;;11.38;6.90;;;;;;;3.75;80.99;97893.97;5025565;28;20041;-92
2022/12/04 02:10:02;;;;;;;11.02;6.30;;;;;;;3.73;80.70;97898.50;5017093;28;20034;-92
2022/12/04 02:12:39;;;;;;;;;;;;;;;3.78;81.15;97891.06;5022752;28;20040;-92
2022/12/04 02:15:22;;;;;;;9.15;5.70;;;;;;;3.86;81.33;97898.84;5011036;28;19909;-92
2022/12/04 02:18:01;;;;;;;12.85;6.43;;;;;;;3.91;81.42;97888.78;5027047;28;20065;-91
2022/12/04 02:20:46;;;;;;;10.95;6.53;;;;;;;4.05;81.29;97891.69;5025430;28;20108;-92
2022/12/04 02:23:21;;;;;;;8.93;5.47;;;;;;;4.12;80.85;97890.88;4994042;28;20451;-92
2022/12/04 02:26:41;;;;;;;9.80;5.93;;;;;;;4.16;80.28;97904.34;4996172;28;20029;-92
2022/12/04 02:29:22;;;;;;;9.55;6.05;;;;;;;4.15;80.46;97895.75;4996176;28;20053;-92
2022/12/04 02:32:17;;;;;;;9.95;5.97;;;;;;;4.13;80.24;97908.06;5022458;28;20033;-92
2022/12/04 02:34:58;;;;;;;12.90;6.40;;;;;;;4.01;80.03;97899.78;5017820;28;20062;-92
2022/12/04 02:37:48;;;;;;;10.63;6.25;;;;;;;4.00;80.49;97887.81;5025355;28;20523;-92
2022/12/04 02:40:38;;;;;;;8.98;5.50;;;;;;;4.06;80.38;97896.72;5027077;28;20037;-91
2022/12/04 02:43:19;;;;;;;10.15;6.18;;;;;;;3.97;79.79;97893.34;5019168;28;20075;-92
2022/12/04 02:45:55;;;;;;;8.63;5.10;;;;;;;3.97;80.46;97887.34;5013378;28;20049;-92
2022/12/04 02:48:24;;;;;;;9.40;5.85;;;;;;;3.97;80.75;97887.34;5023970;28;20042;-91
2022/12/04 02:50:55;;;;;;;9.85;6.25;;;;;;;4.05;80.86;97905.47;5028401;28;20041;-92
2022/12/04 02:53:30;;;;;;;8.45;5.68;;;;;;;3.96;80.22;97880.53;5011897;28;20029;-92
2022/12/04 02:56:08;;;;;;;9.98;5.05;;;;;;;3.93;80.38;97891.22;5019140;28;20034;-92
2022/12/04 02:58:43;;;;;;;10.23;6.28;;;;;;;3.91;81.10;97899.16;5030413;28;20080;-91
2022/12/04 03:01:19;;;;;;;9.35;6.00;;;;;;;3.98;81.67;97886.34;5031268;28;20034;-92
2022/12/04 03:04:12;;;;;;;9.02;5.43;;;;;;;3.88;80.77;97883.09;5031105;28;20120;-92
2022/12/04 03:06:42;;;;;;;9.10;5.70;;;;;;;3.81;81.86;97877.75;5031789;28;20370;-92
2022/12/04 03:09:22;;;;;;;10.52;6.13;;;;;;;3.89;81.28;97874.34;5014163;28;20041;-92
2022/12/04 03:11:57;;;;;;;11.02;6.03;;;;;;;3.94;80.76;97885.84;5014075;28;20038;-92
2022/12/04 03:14:31;;;;;;;9.35;5.65;;;;;;;3.94;80.88;97877.25;5016353;28;20025;-92
2022/12/04 03:17:07;;;;;;;10.07;5.85;;;;;;;3.91;80.43;97883.59;5031734;28;20037;-92
2022/12/04 03:19:44;;;;;;;8.93;5.85;;;;;;;3.97;81.11;97879.56;5029554;28;20057;-92
2022/12/04 03:22:17;;;;;;;8.77;5.50;;;;;;;3.97;80.32;97876.94;5029919;28;20053;-92
2022/12/04 03:24:54;;;;;;;11.82;6.07;;;;;;;3.97;80.53;97869.97;5034192;28;20457;-91
2022/12/04 03:27:25;;;;;;;9.98;5.90;;;;;;;3.85;80.32;97871.28;5034552;28;20037;-92
2022/12/04 03:29:59;;;;;;;;;;;;;;;3.83;81.00;97859.44;5025678;28;20053;-92
2022/12/04 03:32:44;;;;;;;9.65;5.32;;;;;;;3.74;81.46;97861.22;5034744;28;19913;-91
2022/12/04 03:35:17;;;;;;;10.02;5.82;;;;;;;3.82;81.68;97866.41;5024458;28;20044;-92
2022/12/04 03:38:13;;;;;;;9.45;5.70;;;;;;;3.83;81.52;97865.41;5019697;28;20030;-92
2022/12/04 03:41:05;;;;;;;8.80;5.85;;;;;;;3.85;81.02;97858.31;5030496;28;20037;-92
2022/12/04 03:43:59;;;;;;;8.63;5.65;;;;;;;3.85;81.24;97857.50;5017304;28;20042;-92
2022/12/04 03:47:01;;;;;;;10.93;5.90;;;;;;;3.82;81.09;97840.47;5017147;28;20072;-92
2022/12/04 03:49:45;;;;;;;13.02;6.60;;;;;;;3.83;81.39;97854.22;5028241;28;20033;-92
2022/12/04 03:52:23;;;;;;;11.00;6.22;;;;;;;3.94;81.53;97846.94;4996770;28;20037;-92
2022/12/04 03:55:03;;;;;;;9.32;6.05;;;;;;;3.99;81.38;97847.25;4996046;28;20033;-92
2022/12/04 03:57:39;;;;;;;10.02;5.93;;;;;;;3.91;81.05;97839.50;5017155;28;20037;-92
2022/12/04 04:00:16;;;;;;;11.15;5.75;;;;;;;3.97;81.56;97838.03;4998914;28;20029;-92
2022/12/04 04:03:05;;;;;;;9.45;5.60;;;;;;;3.98;81.93;97831.84;4996517;28;20189;-92
2022/12/04 04:05:33;;;;;;;7.90;5.18;;;;;;;4.07;81.62;97833.44;5001666;28;20040;-92
2022/12/04 04:08:25;;;;;;;10.68;5.70;;;;;;;4.08;81.30;97831.66;5016562;28;20131;-92
2022/12/04 04:11:21;;;;;;;10.23;5.47;;;;;;;4.21;81.50;97838.00;4996345;28;20504;-92
2022/12/04 04:25:46;;;;;;;11.52;6.70;;;;;;;3.99;80.97;97817.91;5033170;28;20033;-92
2022/12/04 04:28:32;;;;;;;8.98;5.47;;;;;;;4.06;80.74;97818.06;5013061;28;20528;-92
2022/12/04 04:31:50;;;;;;;9.50;5.97;;;;;;;3.98;80.99;97817.09;5025033;28;20088;-92
2022/12/04 04:34:30;;;;;;;10.10;5.80;;;;;;;4.05;81.32;97813.84;4975064;28;20041;-92
2022/12/04 04:37:23;;;;;;;9.25;5.88;;;;;;;4.11;81.09;97834.75;5033703;28;20025;-92
2022/12/04 04:40:25;;;;;;;9.68;5.80;;;;;;;4.02;81.06;97828.78;5011182;28;20117;-92
2022/12/04 04:43:17;;;;;;;8.32;4.97;;;;;;;4.03;81.74;97822.63;5004832;28;20656;-92
2022/12/04 04:45:48;;;;;;;9.70;5.80;;;;;;;4.07;80.81;97817.06;5012596;28;20066;-92
2022/12/04 04:48:25;;;;;;;8.40;5.40;;;;;;;4.15;80.96;97822.28;5026039;28;20113;-92
2022/12/04 04:50:52;;;;;;;9.15;5.40;;;;;;;4.17;81.47;97828.91;5019548;28;20051;-92
2022/12/04 04:53:25;;;;;;;8.55;5.47;;;;;;;4.13;81.16;97832.00;5024044;28;20033;-92
2022/12/04 04:55:52;;;;;;;8.98;5.85;;;;;;;4.11;81.45;97819.19;5016104;28;20034;-93
2022/12/04 04:58:19;;;;;;;8.48;5.30;;;;;;;4.20;80.81;97835.56;5012689;28;20037;-92
2022/12/04 05:01:07;;;;;;;8.10;5.55;;;;;;;4.26;81.59;97824.53;5021343;28;20037;-92
2022/12/04 05:03:33;;;;;;;8.40;4.93;;;;;;;4.32;80.05;97839.44;4980887;28;20033;-93
2022/12/04 05:06:00;;;;;;;8.65;5.60;;;;;;;4.32;80.49;97831.66;5014218;28;20034;-92
2022/12/04 05:08:26;;;;;;;6.72;4.75;;;;;;;4.34;79.65;97850.44;5018103;28;20041;-92
2022/12/04 05:10:52;;;;;;;7.25;5.25;;;;;;;4.23;79.34;97827.44;5015149;28;20025;-92
2022/12/04 05:13:19;;;;;;;9.18;5.47;;;;;;;4.25;80.89;97848.84;5015716;28;20057;-92
2022/12/04 05:15:55;;;;;;;7.80;5.50;;;;;;;4.21;80.37;97847.56;5033720;28;20033;-92
2022/12/04 05:18:20;;;;;;;7.75;5.40;;;;;;;4.29;80.73;97850.13;5026061;28;20049;-92
2022/12/04 05:20:46;;;;;;;8.93;5.07;;;;;;;4.29;81.46;97850.13;5032403;28;20476;-92
2022/12/04 05:23:11;;;;;;;8.50;5.32;;;;;;;4.42;81.21;97860.81;4998570;28;20030;-92
2022/12/04 05:25:36;;;;;;;7.40;5.03;;;;;;;4.41;80.20;97848.81;5014456;28;20116;-92
2022/12/04 05:28:02;;;;;;;9.48;5.43;;;;;;;4.21;80.23;97852.75;5001303;28;20026;-92
2022/12/04 05:30:27;;;;;;;8.57;5.85;;;;;;;4.07;80.98;97850.81;4978481;28;20496;-92
2022/12/04 05:32:53;;;;;;;7.75;5.50;;;;;;;4.21;81.01;97860.53;5012799;28;20040;-92
2022/12/04 05:35:18;;;;;;;9.18;5.50;;;;;;;4.15;80.80;97853.41;5010822;28;20092;-93
2022/12/04 05:37:44;;;;;;;8.48;5.55;;;;;;;4.08;80.95;97855.03;5014704;28;20030;-92
2022/12/04 05:40:10;;;;;;;9.13;5.85;;;;;;;4.10;80.69;97853.09;5015089;28;20044;-93
2022/12/04 05:42:36;;;;;;;7.85;5.35;;;;;;;4.23;80.66;97856.00;5029116;28;20041;-92
2022/12/04 05:45:01;;;;;;;8.65;5.75;;;;;;;4.13;80.95;97850.97;5010536;28;20488;-93
2022/12/04 05:47:29;;;;;;;8.15;5.45;;;;;;;4.15;81.63;97850.81;5028546;28;20084;-92
2022/12/04 05:49:55;;;;;;;9.40;5.47;;;;;;;4.13;81.68;97848.38;5031980;28;20087;-93
2022/12/04 05:52:20;;;;;;;9.82;5.57;;;;;;;4.23;81.67;97845.59;5012553;28;20021;-92
2022/12/04 05:54:46;;;;;;;9.88;5.30;;;;;;;4.17;80.99;97851.47;4995888;28;20390;-93
2022/12/04 05:57:13;;;;;;;8.68;5.65;;;;;;;4.18;80.88;97866.84;4998337;28;20025;-93
2022/12/04 05:59:39;;;;;;;8.02;5.22;;;;;;;3.88;80.97;97839.81;5032334;28;20037;-92
2022/12/04 06:02:04;;;;;;;7.30;4.82;;;;;;;3.89;82.18;97843.22;5032745;28;20036;-92
2022/12/04 06:04:30;;;;;;;8.43;5.15;;;;;;;3.98;82.31;97856.03;5014846;28;20069;-92
2022/12/04 06:06:56;;;;;;;6.88;4.57;;;;;;;4.12;82.06;97859.72;5029184;28;20063;-92
2022/12/04 06:09:21;;;;;;;8.30;5.38;;;;;;;4.16;82.15;97873.19;5012245;28;20037;-92
2022/12/04 06:11:47;;;;;;;8.02;5.53;;;;;;;4.20;81.59;97882.28;5025036;28;20036;-93
2022/12/04 06:14:15;;;;;;;9.68;5.80;;;;;;;4.19;81.46;97872.84;5014696;28;20104;-93
2022/12/04 06:16:44;;;;;;;7.93;4.90;;;;;;;4.15;80.99;97877.59;5022979;28;20072;-92
2022/12/04 06:19:15;;;;;;;8.95;5.38;;;;;;;4.28;81.01;97890.88;5013828;28;20041;-93
2022/12/04 06:21:43;;;;;;;7.82;5.15;;;;;;;4.30;81.54;97883.72;5031923;28;20099;-92
2022/12/04 06:24:17;;;;;;;8.18;5.45;;;;;;;4.44;81.33;97891.84;5021420;28;20037;-92
2022/12/04 06:26:45;;;;;;;12.38;5.57;;;;;;;4.36;80.06;97882.25;5013707;28;20057;-92
2022/12/04 06:29:12;;;;;;;8.55;5.85;;;;;;;4.30;81.18;97862.94;5031132;28;20050;-91
2022/12/04 06:31:38;;;;;;;8.20;5.20;;;;;;;4.27;81.15;97846.91;5030189;28;20037;-92
2022/12/04 06:34:05;;;;;;;7.90;5.35;;;;;;;4.37;80.70;97857.91;5011119;28;20026;-92
2022/12/04 06:36:49;;;;;;;8.68;5.72;;;;;;;4.48;80.29;97877.50;5012662;28;20060;-92
2022/12/04 06:39:21;;;;;;;8.60;5.95;;;;;;;4.44;80.55;97878.84;5032111;28;20542;-93
2022/12/04 06:41:47;;;;;;;9.70;5.65;;;;;;;4.30;80.82;97846.56;5015534;28;20030;-93
2022/12/04 06:44:14;;;;;;;8.45;5.13;;;;;;;4.40;81.02;97864.56;5015028;28;20029;-94
2022/12/04 06:46:39;;;;;;;8.38;5.13;;;;;;;4.46;80.27;97848.31;5033559;28;20037;-93
2022/12/04 06:49:08;;;;;;;8.00;5.18;;;;;;;4.38;79.99;97863.91;5015638;28;20035;-93
2022/12/04 06:51:44;;;;;;;8.00;5.63;;;;;;;4.28;80.18;97856.31;5032028;28;20382;-93
2022/12/04 06:54:12;;;;;;;8.57;5.35;;;;;;;4.43;80.77;97866.81;5015269;28;20060;-93
2022/12/04 06:56:39;;;;;;;8.80;5.72;;;;;;;4.28;80.54;97858.91;5031173;28;20112;-94
2022/12/04 06:59:05;;;;;;;8.43;5.45;;;;;;;4.32;81.11;97862.81;5031545;28;20392;-93
2022/12/04 07:01:33;;;;;;;6.93;5.00;;;;;;;4.46;81.41;97861.31;5013551;28;20033;-94
2022/12/04 07:04:02;;;;;;;9.15;5.75;;;;;;;4.59;80.87;97881.56;5011370;28;20197;-93
2022/12/04 07:06:34;;;;;;;9.32;5.88;;;;;;;4.55;80.31;97876.69;5021387;28;20034;-93
2022/12/04 07:09:16;;;;;;;7.25;5.40;;;;;;;4.59;80.55;97886.75;5021588;28;20038;-93
2022/12/04 07:11:43;;;;;;;10.65;5.70;;;;;;;4.51;80.98;97875.41;5014229;28;20041;-93
2022/12/04 07:14:12;;;;;;;10.98;5.90;;;;;;;4.61;80.51;97880.41;5015472;28;20030;-93
2022/12/04 07:16:42;;;;;;;9.48;6.20;;;;;;;4.65;80.81;97873.91;5026022;28;20038;-93
2022/12/04 07:19:13;;;;;;;8.68;5.90;;;;;;;4.51;80.89;97882.38;4979974;28;20087;-93
2022/12/04 07:21:40;;;;;;;9.10;5.65;;;;;;;4.49;81.28;97877.34;5027156;28;20045;-92
2022/12/04 07:24:06;;;;;;;7.65;5.80;;;;;;;4.47;81.20;97871.50;5002944;28;20030;-92
2022/12/04 07:26:31;;;;;;;9.07;5.68;;;;;;;4.47;80.86;97844.75;5020215;28;20048;-92
2022/12/04 07:29:01;;;;;;;8.80;5.60;;;;;;;4.56;81.55;97841.16;5031621;28;20072;-93
2022/12/04 07:31:28;;;;;;;9.07;6.07;;;;;;;4.51;80.28;97831.25;5031177;28;20029;-94
2022/12/04 07:33:57;;;;;;;7.35;5.32;;;;;;;4.47;80.53;97827.38;5015831;28;20532;-94
2022/12/04 07:36:25;;;;;;;7.85;5.53;;;;;;;4.52;80.76;97825.09;5015564;28;20029;-94
2022/12/04 07:38:57;;;;;;;11.13;5.60;;;;;;;4.59;80.55;97816.63;5014046;28;20048;-94
2022/12/04 07:41:25;;;;;;;8.18;5.80;;;;;;;4.56;80.63;97805.59;4999766;28;20026;-94
2022/12/04 07:43:56;;;;;;;7.72;5.82;;;;;;;4.55;80.92;97797.94;5015581;28;20026;-94
2022/12/04 07:46:27;;;;;;;7.72;5.25;;;;;;;4.65;81.71;97810.75;4999284;28;20103;-94
2022/12/04 07:48:57;;;;;;;9.35;5.75;;;;;;;4.70;81.22;97811.06;5016369;28;20061;-94
2022/12/04 07:51:26;;;;;;;9.57;6.30;;;;;;;4.72;79.36;97811.69;5015606;28;20373;-95
2022/12/04 07:53:56;;;;;;;10.20;5.57;;;;;;;4.91;80.33;97839.84;5032863;28;20037;-94
2022/12/04 07:56:22;;;;;;;9.43;5.45;;;;;;;4.78;79.26;97835.19;5018567;28;20037;-93
2022/12/04 07:58:48;;;;;;;9.48;5.50;;;;;;;4.65;80.29;97824.53;5011371;28;20025;-93
2022/12/04 08:01:18;;;;;;;7.70;5.55;;;;;;;4.67;79.70;97847.75;4983583;28;20075;-93
2022/12/04 08:03:48;;;;;;;9.48;6.18;;;;;;;4.67;80.04;97827.78;4982785;28;20026;-93
2022/12/04 08:06:16;;;;;;;7.78;5.72;;;;;;;4.84;81.34;97844.91;5016125;28;20041;-93
2022/12/04 08:08:41;;;;;;;10.10;5.47;;;;;;;4.87;79.42;97842.97;5012986;28;20037;-94
2022/12/04 08:11:11;;;;;;;9.63;5.60;;;;;;;4.96;80.60;97858.34;5022233;28;20038;-94
2022/12/04 08:13:37;;;;;;;7.72;5.38;;;;;;;4.99;81.04;97844.22;4988163;28;20121;-92
2022/12/04 08:16:05;;;;;;;8.32;5.72;;;;;;;4.96;79.17;97842.75;5012515;28;20485;-93
2022/12/04 08:18:32;;;;;;;12.45;5.75;;;;;;;5.01;80.40;97848.25;5024091;28;20520;-93
2022/12/04 08:21:13;;;;;;;9.07;5.95;;;;;;;5.01;79.40;97860.44;4991626;28;20412;-93
2022/12/04 08:23:41;;;;;;;9.43;5.85;;;;;;;4.96;80.42;97841.94;5033051;28;20029;-92
2022/12/04 08:26:10;;;;;;;9.07;5.95;;;;;;;5.08;80.76;97838.78;5016133;28;20040;-93
2022/12/04 08:28:36;;;;;;;8.43;6.13;;;;;;;5.22;79.20;97847.66;4999878;28;20080;-93
2022/12/04 08:31:19;;;;;;;8.80;6.10;;;;;;;5.26;80.54;97841.13;4984641;28;20185;-93
2022/12/04 08:33:47;;;;;;;9.07;5.65;;;;;;;5.36;80.16;97838.31;5012534;28;20039;-94
2022/12/04 08:36:18;;;;;;;8.65;5.82;;;;;;;5.29;78.43;97847.78;5013346;28;20040;-94
2022/12/04 08:38:44;;;;;;;9.60;6.05;;;;;;;5.36;80.01;97843.50;5012621;28;20041;-93
2022/12/04 08:41:14;;;;;;;9.00;5.43;;;;;;;5.38;79.69;97851.94;5010744;28;20041;-94
2022/12/04 08:43:40;;;;;;;8.27;5.40;;;;;;;5.37;79.47;97838.13;5004056;28;20033;-93
2022/12/04 08:46:13;;;;;;;9.73;6.72;;;;;;;5.33;78.20;97842.06;5009744;28;20129;-93
2022/12/04 08:48:39;;;;;;;7.85;5.68;;;;;;;5.29;78.22;97832.19;5004190;28;20029;-93
2022/12/04 08:51:15;;;;;;;7.95;5.32;;;;;;;5.18;78.93;97829.97;5015705;28;20537;-93
2022/12/04 08:53:40;;;;;;;7.50;5.70;;;;;;;5.27;80.69;97839.34;5014089;28;20103;-93
2022/12/04 08:56:06;;;;;;;8.55;5.57;;;;;;;5.28;79.60;97839.19;5012925;28;20034;-93
2022/12/04 08:58:31;;;;;;;7.68;5.75;;;;;;;5.41;79.00;97846.41;5021021;28;20060;-93
2022/12/04 09:01:09;;;;;;;8.80;5.65;;;;;;;5.38;78.19;97862.34;5015877;28;20075;-94
2022/12/04 09:03:35;;;;;;;7.78;5.60;;;;;;;5.41;79.08;97862.03;5008806;28;20030;-94
2022/12/04 09:06:03;;;;;;;7.88;5.40;;;;;;;5.39;78.75;97861.34;5009011;28;20037;-93
2022/12/04 09:08:30;;;;;;;7.97;5.38;;;;;;;5.55;79.71;97865.66;5033540;28;20384;-93
2022/12/04 09:11:14;;;;;;;9.38;5.15;;;;;;;5.51;78.20;97861.78;5033288;28;20064;-93
2022/12/04 09:13:41;;;;;;;7.97;5.32;;;;;;;5.54;78.61;97862.25;5016013;28;20038;-94
2022/12/04 09:16:24;;;;;;;7.18;4.68;;;;;;;5.67;78.56;97873.88;5024434;28;20043;-93
2022/12/04 09:18:50;;;;;;;7.80;4.90;;;;;;;5.81;78.87;97867.91;5032254;28;20068;-92
2022/12/04 09:21:19;;;;;;;7.85;5.60;;;;;;;5.95;78.81;97869.78;5033645;28;20431;-93
2022/12/04 09:23:45;;;;;;;7.97;5.25;;;;;;;5.89;76.71;97870.47;5011264;28;20038;-93
2022/12/04 09:26:30;;;;;;;7.70;5.22;;;;;;;5.84;77.99;97863.16;5013387;28;20104;-93
2022/12/04 09:29:00;;;;;;;7.22;4.88;;;;;;;5.86;78.02;97876.00;4995411;28;20914;-93
2022/12/04 09:31:26;;;;;;;6.95;4.93;;;;;;;5.82;77.99;97875.56;5005843;28;20044;-93
2022/12/04 09:33:52;;;;;;;8.05;5.25;;;;;;;5.79;77.30;97870.69;5012751;28;20116;-93
2022/12/04 09:36:18;;;;;;;7.00;5.30;;;;;;;5.86;77.40;97858.59;5009044;28;20488;-92
2022/12/04 09:38:47;;;;;;;9.15;5.45;;;;;;;5.86;76.31;97855.19;5013400;28;20040;-92
2022/12/04 09:41:35;;;;;;;8.10;5.63;;;;;;;5.73;76.86;97860.97;5031087;28;20041;-92
2022/12/04 09:44:35;;;;;;;8.88;5.68;;;;;;;5.89;77.91;97857.44;5032027;28;20045;-92
2022/12/04 09:47:32;;;;;;;9.35;6.43;;;;;;;6.04;79.09;97841.88;5012794;28;20041;-93
2022/12/04 09:50:39;;;;;;;7.43;5.20;;;;;;;6.06;77.41;97845.13;5009997;28;20076;-93
2022/12/04 09:53:20;;;;;;;6.70;5.00;;;;;;;6.20;78.84;97839.13;5032225;28;20032;-93
2022/12/04 09:55:46;;;;;;;7.88;4.90;;;;;;;6.18;76.61;97833.28;5017328;28;20481;-92
2022/12/04 09:58:22;;;;;;;9.48;5.70;;;;;;;6.15;75.91;97834.44;5014727;28;20030;-92
2022/12/04 10:00:53;;;;;;;7.60;5.60;;;;;;;6.11;76.32;97821.94;5027281;28;20033;-92
2022/12/04 10:03:25;;;;;;;8.25;5.70;;;;;;;6.11;77.67;97812.34;4988866;28;20040;-92
2022/12/04 10:06:13;;;;;;;7.47;5.43;;;;;;;5.93;76.82;97793.66;5010586;28;20038;-92
2022/12/04 10:08:57;;;;;;;9.00;6.40;;;;;;;6.00;77.23;97805.00;5009330;28;20157;-92
2022/12/04 10:11:50;;;;;;;7.07;5.00;;;;;;;6.06;78.41;97799.06;5029174;28;20038;-92
2022/12/04 10:15:00;;;;;;;11.32;5.43;;;;;;;6.03;78.48;97796.81;5010787;28;20026;-92
2022/12/04 10:17:57;;;;;;;7.97;5.38;;;;;;;6.12;78.37;97798.34;5015061;28;20075;-92
2022/12/04 10:21:00;;;;;;;9.07;5.63;;;;;;;6.20;76.92;97825.31;5010667;28;20096;-92
2022/12/04 10:23:47;;;;;;;9.02;5.43;;;;;;;6.28;78.30;97818.19;5024236;28;20087;-92
2022/12/04 10:26:23;;;;;;;6.68;4.72;;;;;;;6.31;75.94;97799.63;5013054;28;20124;-92
2022/12/04 10:29:16;;;;;;;7.72;5.82;;;;;;;6.26;76.73;97798.53;5016277;28;20481;-93
2022/12/04 10:31:46;;;;;;;8.00;5.90;;;;;;;6.31;77.08;97798.81;5012197;28;20388;-92
2022/12/04 10:34:27;;;;;;;7.95;5.75;;;;;;;6.49;76.50;97794.06;4999381;28;20043;-92
2022/12/04 10:37:00;;;;;;;7.68;5.07;;;;;;;6.43;75.35;97779.13;5011368;28;20045;-92
2022/12/04 10:39:35;;;;;;;8.68;5.40;;;;;;;6.42;75.06;97774.94;4993343;28;20053;-92
2022/12/04 10:42:16;;;;;;;7.38;5.25;;;;;;;6.53;76.87;97787.47;5013978;28;20037;-93
2022/12/04 10:44:42;;;;;;;7.80;5.07;;;;;;;6.61;76.71;97779.56;5031503;28;20481;-93
2022/12/04 10:47:12;;;;;;;6.80;5.25;;;;;;;6.60;76.33;97772.75;4995162;28;20043;-93
2022/12/04 10:49:38;;;;;;;7.93;5.93;;;;;;;6.63;76.06;97771.56;5013902;28;20033;-93
2022/12/04 10:52:05;;;;;;;6.30;4.68;;;;;;;6.69;76.67;97756.00;4998446;28;20041;-93
2022/12/04 10:54:58;;;;;;;7.15;4.80;;;;;;;6.82;75.75;97764.97;4978025;28;20052;-93
2022/12/04 10:57:39;;;;;;;7.22;5.22;;;;;;;6.85;75.54;97757.59;5014968;28;20033;-94
2022/12/04 11:00:34;;;;;;;7.88;5.68;;;;;;;6.86;74.63;97763.63;5006472;28;20061;-91
2022/12/04 11:03:08;;;;;;;7.10;4.93;;;;;;;6.82;75.87;97757.94;5030531;28;20046;-92
2022/12/04 11:05:52;;;;;;;7.97;5.07;;;;;;;6.67;75.91;97744.97;5030741;28;20087;-92
2022/12/04 11:08:41;;;;;;;7.05;5.03;;;;;;;6.71;76.22;97725.34;5014702;28;20057;-92
2022/12/04 11:11:14;;;;;;;6.93;4.80;;;;;;;6.87;76.72;97728.72;5003650;28;20045;-92
2022/12/04 11:13:40;;;;;;;7.05;4.68;;;;;;;6.68;75.40;97725.72;5021195;28;20489;-92
2022/12/04 11:16:07;;;;;;;7.05;5.15;;;;;;;6.80;77.05;97733.88;5025683;28;20041;-93
2022/12/04 11:18:46;;;;;;;8.98;5.38;;;;;;;6.96;77.36;97738.06;5029815;28;20045;-93
2022/12/04 11:21:24;;;;;;;7.78;5.32;;;;;;;6.96;76.76;97722.41;5017031;28;20069;-92
2022/12/04 11:23:51;;;;;;;7.60;5.13;;;;;;;7.11;76.24;97715.31;5003563;28;20528;-93
2022/12/04 11:26:32;;;;;;;6.57;4.43;;;;;;;7.30;77.76;97713.88;5033093;28;20104;-93
2022/12/04 11:29:00;;;;;;;7.25;4.80;;;;;;;7.36;74.47;97710.53;5033537;28;20053;-92
2022/12/04 11:31:27;;;;;;;8.15;4.97;;;;;;;7.34;73.83;97719.53;5034226;28;20037;-93
2022/12/04 11:33:58;;;;;;;7.05;5.25;;;;;;;7.18;74.29;97708.38;5012792;28;20172;-91
2022/12/04 11:36:31;;;;;;;;;;;;;;;7.28;74.64;97715.06;5028492;28;20116;-92
2022/12/04 11:39:12;;;;;;;7.63;4.75;;;;;;;7.38;75.49;97699.94;5014345;28;20398;-92
2022/12/04 11:41:38;;;;;;;7.47;4.80;;;;;;;7.42;75.14;97701.13;5034066;28;20045;-91
2022/12/04 11:44:26;;;;;;;6.95;4.53;;;;;;;7.36;74.88;97694.06;5033782;28;20037;-92
2022/12/04 11:46:55;;;;;;;7.32;5.32;;;;;;;7.42;74.83;97690.69;5016496;28;20033;-92
2022/12/04 11:49:25;;;;;;;6.43;5.20;;;;;;;7.34;74.59;97686.44;5029289;28;20044;-92
2022/12/04 11:52:30;;;;;;;7.30;5.28;;;;;;;7.36;74.85;97692.25;5023219;28;20140;-91
2022/12/04 11:55:22;;;;;;;7.53;5.60;;;;;;;7.31;75.97;97696.44;5008471;28;20033;-91
2022/12/04 11:58:26;;;;;;;8.43;5.90;;;;;;;7.31;76.30;97705.06;4995991;28;20504;-91
2022/12/04 12:01:29;;;;;;;;;;;;;;;;;;;;;
2022/12/04 12:04:12;;;;;;;8.45;5.68;;;;;;;7.33;74.40;97712.72;5005668;28;20116;-91
2022/12/04 12:07:09;;;;;;;8.30;5.47;;;;;;;7.18;75.73;97700.53;5026875;28;20582;-91
2022/12/04 12:09:46;;;;;;;6.32;4.88;;;;;;;7.02;75.31;97700.81;5029965;28;20095;-92
2022/12/04 12:12:54;;;;;;;8.32;5.13;;;;;;;7.14;76.44;97695.91;5026783;28;20037;-91
2022/12/04 12:16:10;;;;;;;7.82;5.50;;;;;;;7.10;76.23;97684.22;5019100;28;20033;-93
2022/12/04 12:19:59;;;;;;;;;;;;;;;;;;;;;
2022/12/04 12:22:51;;;;;;;7.07;5.20;;;;;;;7.46;76.86;97689.34;5033353;28;20103;-92
2022/12/04 12:25:25;;;;;;;;;;;;;;;7.40;74.75;97687.50;5030518;28;20164;-92
2022/12/04 12:28:23;;;;;;;6.93;5.10;;;;;;;7.29;74.27;97685.38;5033098;28;20356;-92
2022/12/04 12:31:04;;;;;;;8.75;5.28;;;;;;;7.04;74.93;97672.75;5021446;28;20049;-92